Plevna, Montana
Current Conditions -  °F | °C
As of 4:51 PM on Monday 20 Oct 2014 (Local Time) from KBHK Reporting Station
Clear Clear  
Wind Chill: 23°   Ceiling: Unl
Heat Index: 23°   Visibility: 10mi
Dew Point:   Wind: 13mph
Humidity: 32%   Direction: 150°SSE
Pressure: 29.88"   Gusts: NA
Location:  46.42°N, 104.52°W
Report Text: KBHK 202251Z AUTO 15011KT 10SM CLR 23/06 A2988 RMK AO2 SLP111 T02330056
Loading
Personal Weather Stations






























Interactive Weather Map
Tropical Storm Tracking
New forecast layout! Learn more

10-Day Weather Forecast

Advertisements
Track Severe Weather on mobile